createdAt,value
2023-02-07T00:00:36.344Z,-1.31
2023-02-07T00:03:30.781Z,-1.12
2023-02-07T00:06:09.059Z,-1.18
2023-02-07T00:08:42.440Z,-1.07
2023-02-07T00:11:17.395Z,-1.23
2023-02-07T00:13:52.980Z,-0.95
2023-02-07T00:16:26.502Z,-1.29
2023-02-07T00:19:01.552Z,-1.23
2023-02-07T00:21:33.820Z,-1.43
2023-02-07T00:24:08.451Z,-1.57
2023-02-07T00:26:40.143Z,-1.58
2023-02-07T00:29:14.884Z,-1.40
2023-02-07T00:31:46.587Z,-1.24
2023-02-07T00:34:21.318Z,-1.25
2023-02-07T00:36:53.120Z,-1.31
2023-02-07T00:39:25.143Z,-1.39
2023-02-07T00:41:56.969Z,-1.56
2023-02-07T00:44:28.898Z,-1.79
2023-02-07T00:47:00.692Z,-1.89
2023-02-07T00:49:35.386Z,-1.93
2023-02-07T00:52:07.776Z,-2.01
2023-02-07T00:54:39.629Z,-1.99
2023-02-07T00:57:11.751Z,-2.01
2023-02-07T00:59:48.818Z,-2.01
2023-02-07T01:02:26.968Z,-2.20
2023-02-07T01:05:05.387Z,-2.25
2023-02-07T01:07:37.396Z,-2.32
2023-02-07T01:10:10.430Z,-2.38
2023-02-07T01:12:41.836Z,-2.44
2023-02-07T01:15:15.755Z,-2.56
2023-02-07T01:17:47.650Z,-2.50
2023-02-07T01:20:21.986Z,-2.60
2023-02-07T01:22:53.361Z,-2.70
2023-02-07T01:25:24.982Z,-2.76
2023-02-07T01:27:59.772Z,-2.82
2023-02-07T01:30:33.903Z,-2.93
2023-02-07T01:33:05.846Z,-2.90
2023-02-07T01:35:41.263Z,-2.88
2023-02-07T01:38:13.204Z,-2.90
2023-02-07T01:40:45.592Z,-2.93
2023-02-07T01:43:28.570Z,-2.95
2023-02-07T01:46:00.785Z,-3.08
2023-02-07T01:48:36.366Z,-3.06
2023-02-07T01:51:11.711Z,-3.06
2023-02-07T01:53:44.608Z,-3.16
2023-02-07T01:56:30.735Z,-3.14
2023-02-07T01:59:07.627Z,-2.89
2023-02-07T02:01:39.943Z,-3.03
2023-02-07T02:04:11.715Z,-3.03
2023-02-07T02:07:00.445Z,-3.14
2023-02-07T02:09:34.723Z,-3.11
2023-02-07T02:12:35.316Z,-3.10
2023-02-07T02:15:23.501Z,-3.12
2023-02-07T02:18:13.728Z,-3.17
2023-02-07T02:21:22.676Z,-3.18
2023-02-07T02:24:23.657Z,-3.19
2023-02-07T02:27:09.569Z,-3.19
2023-02-07T02:30:32.794Z,-3.30
2023-02-07T02:33:30.385Z,-3.21
2023-02-07T02:36:14.231Z,-3.29
2023-02-07T02:38:54.413Z,-3.29
2023-02-07T02:41:33.754Z,-3.24
2023-02-07T02:44:11.082Z,-3.28
2023-02-07T02:46:45.929Z,-3.21
2023-02-07T02:49:26.395Z,-3.26
2023-02-07T02:52:03.420Z,-3.17
2023-02-07T02:54:37.540Z,-3.20
2023-02-07T02:57:27.781Z,-3.18
2023-02-07T03:00:26.682Z,-3.21
2023-02-07T03:03:15.751Z,-3.19
2023-02-07T03:06:05.149Z,-3.07
2023-02-07T03:08:48.620Z,-3.07
2023-02-07T03:11:52.836Z,-3.07
2023-02-07T03:14:36.885Z,-2.68
2023-02-07T03:17:18.163Z,-2.77
2023-02-07T03:19:57.521Z,-2.49
2023-02-07T03:22:33.069Z,-2.37
2023-02-07T03:25:10.907Z,-2.59
2023-02-07T03:27:43.942Z,-2.44
2023-02-07T03:30:22.469Z,-2.39
2023-02-07T03:33:00.014Z,-2.53
2023-02-07T03:35:38.064Z,-2.61
2023-02-07T03:38:14.215Z,-2.60
2023-02-07T03:40:50.953Z,-2.56
2023-02-07T03:43:28.326Z,-2.64
2023-02-07T03:46:00.854Z,-2.76
2023-02-07T03:48:32.592Z,-2.81
2023-02-07T03:51:04.767Z,-2.81
2023-02-07T03:53:39.355Z,-2.78
2023-02-07T03:56:12.969Z,-2.62
2023-02-07T03:58:45.548Z,-2.67
2023-02-07T04:01:17.499Z,-2.56
2023-02-07T04:03:52.272Z,-2.59
2023-02-07T04:06:24.850Z,-2.64
2023-02-07T04:09:00.928Z,-2.70
2023-02-07T04:11:35.016Z,-2.83
2023-02-07T04:14:07.416Z,-2.96
2023-02-07T04:16:39.781Z,-2.88
2023-02-07T04:19:11.945Z,-2.87
2023-02-07T04:21:44.334Z,-2.92
2023-02-07T04:24:19.187Z,-3.08
2023-02-07T04:26:52.022Z,-2.95
2023-02-07T04:29:24.300Z,-2.97
2023-02-07T04:31:58.884Z,-3.08
2023-02-07T04:34:31.288Z,-3.19
2023-02-07T04:37:03.678Z,-3.24
2023-02-07T04:39:38.741Z,-2.92
2023-02-07T04:42:11.132Z,-2.71
2023-02-07T04:44:44.211Z,-2.69
2023-02-07T04:47:16.892Z,-2.70
2023-02-07T04:49:48.797Z,-2.87
2023-02-07T04:52:20.677Z,-2.57
2023-02-07T04:54:54.917Z,-2.40
2023-02-07T04:57:26.953Z,-2.48
2023-02-07T05:00:00.690Z,-2.51
2023-02-07T05:02:32.739Z,-2.68
2023-02-07T05:05:07.215Z,-2.84
2023-02-07T05:07:38.908Z,-2.91
2023-02-07T05:10:13.364Z,-2.88
2023-02-07T05:12:46.635Z,-2.86
2023-02-07T05:15:18.548Z,-3.03
2023-02-07T05:17:52.910Z,-3.07
2023-02-07T05:20:32.012Z,-3.13
2023-02-07T05:23:07.324Z,-3.04
2023-02-07T05:25:41.770Z,-3.08
2023-02-07T05:28:17.489Z,-2.94
2023-02-07T05:30:56.036Z,-2.84
2023-02-07T05:33:25.678Z,-2.87
2023-02-07T05:36:03.429Z,-2.80
2023-02-07T05:38:35.361Z,-2.31
2023-02-07T05:41:11.221Z,-2.76
2023-02-07T05:43:44.998Z,-2.67
2023-02-07T05:46:19.362Z,-2.50
2023-02-07T05:48:57.546Z,-2.62
2023-02-07T05:51:33.762Z,-2.47
2023-02-07T05:54:07.958Z,-2.40
2023-02-07T05:56:42.182Z,-2.64
2023-02-07T05:59:17.455Z,-2.70
2023-02-07T06:01:53.035Z,-2.54
2023-02-07T06:04:27.841Z,-2.65
2023-02-07T06:07:03.884Z,-2.55
2023-02-07T06:09:35.715Z,-2.33
2023-02-07T06:12:10.830Z,-2.37
2023-02-07T06:14:42.741Z,-2.41
2023-02-07T06:17:14.826Z,-2.42
2023-02-07T06:19:46.860Z,-2.49
2023-02-07T06:22:18.793Z,-2.54
2023-02-07T06:24:52.356Z,-2.63
2023-02-07T06:27:26.682Z,-2.81
2023-02-07T06:29:58.874Z,-2.90
2023-02-07T06:32:34.306Z,-2.90
2023-02-07T06:35:06.780Z,-2.71
2023-02-07T06:37:37.998Z,-2.64
2023-02-07T06:40:10.761Z,-2.57
2023-02-07T06:42:46.669Z,-2.92
2023-02-07T06:45:18.534Z,-2.95
2023-02-07T06:47:51.305Z,-2.54
2023-02-07T06:50:23.410Z,-2.82
2023-02-07T06:52:55.196Z,-2.63
2023-02-07T06:55:30.941Z,-2.68
2023-02-07T06:58:08.470Z,-2.49
2023-02-07T07:00:41.058Z,-2.44
2023-02-07T07:03:18.891Z,-2.34
2023-02-07T07:05:51.021Z,-2.40
2023-02-07T07:08:22.944Z,-2.35
2023-02-07T07:10:59.707Z,-2.38
2023-02-07T07:13:34.247Z,-2.22
2023-02-07T07:16:06.787Z,-2.17
2023-02-07T07:18:39.431Z,-2.44
2023-02-07T07:21:13.524Z,-2.23
2023-02-07T07:23:45.301Z,-2.21
2023-02-07T07:26:17.313Z,-2.37
2023-02-07T07:28:51.924Z,-2.14
2023-02-07T07:31:24.590Z,-2.37
2023-02-07T07:33:58.268Z,-1.70
2023-02-07T07:36:30.995Z,-1.88
2023-02-07T07:39:08.306Z,-2.06
2023-02-07T07:41:41.143Z,-2.10
2023-02-07T07:44:16.385Z,-2.20
2023-02-07T07:46:48.654Z,-1.99
2023-02-07T07:49:21.165Z,-1.93
2023-02-07T07:51:53.890Z,-2.07
2023-02-07T07:54:26.401Z,-1.95
2023-02-07T07:57:02.721Z,-1.64
2023-02-07T07:59:37.763Z,-1.44
2023-02-07T08:02:10.440Z,-1.89
2023-02-07T08:04:42.481Z,-1.19
2023-02-07T08:07:32.036Z,-1.35
2023-02-07T08:10:03.895Z,-1.26
2023-02-07T08:12:37.896Z,-0.98
2023-02-07T08:15:15.640Z,-1.20
2023-02-07T08:17:50.175Z,-0.86
2023-02-07T08:20:23.084Z,-1.05
2023-02-07T08:22:54.512Z,-1.11
2023-02-07T08:25:29.374Z,-1.08
2023-02-07T08:28:04.657Z,-1.27
2023-02-07T08:30:40.389Z,-1.03
2023-02-07T08:33:12.457Z,-0.94
2023-02-07T08:35:44.909Z,-0.73
2023-02-07T08:38:16.611Z,-0.78
2023-02-07T08:40:49.690Z,-0.72
2023-02-07T08:43:27.942Z,-0.52
2023-02-07T08:46:03.104Z,-0.72
2023-02-07T08:48:34.478Z,-0.39
2023-02-07T08:51:11.711Z,-0.51
2023-02-07T08:53:43.768Z,-0.56
2023-02-07T08:56:18.423Z,-0.40
2023-02-07T08:58:52.051Z,-0.37
2023-02-07T09:01:27.606Z,-0.24
2023-02-07T09:03:59.743Z,-0.35
2023-02-07T09:06:32.352Z,-0.12
2023-02-07T09:09:03.962Z,0.25
2023-02-07T09:11:36.651Z,0.27
2023-02-07T09:14:09.568Z,0.30
2023-02-07T09:16:44.024Z,0.35
2023-02-07T09:19:16.074Z,0.33
2023-02-07T09:21:48.520Z,0.72
2023-02-07T09:24:21.172Z,0.76
2023-02-07T09:26:53.338Z,1.04
2023-02-07T09:29:25.322Z,1.71
2023-02-07T09:31:59.644Z,2.44
2023-02-07T09:34:33.384Z,2.68
2023-02-07T09:37:06.458Z,2.93
2023-02-07T09:39:43.177Z,3.29
2023-02-07T09:42:27.774Z,3.31
2023-02-07T09:45:05.306Z,3.76
2023-02-07T09:47:44.735Z,3.98
2023-02-07T09:50:21.837Z,4.00
2023-02-07T09:53:00.139Z,4.46
2023-02-07T09:55:48.298Z,3.44
2023-02-07T09:58:30.974Z,3.66
2023-02-07T10:01:09.439Z,3.87
2023-02-07T10:03:50.293Z,3.70
2023-02-07T10:06:29.216Z,2.77
2023-02-07T10:09:03.688Z,3.23
2023-02-07T10:11:48.805Z,3.10
2023-02-07T10:14:51.990Z,3.11
2023-02-07T10:17:35.766Z,3.76
2023-02-07T10:20:35.593Z,3.69
2023-02-07T10:23:34.082Z,3.97
2023-02-07T10:26:20.036Z,4.21
2023-02-07T10:29:19.091Z,4.14
2023-02-07T10:31:55.053Z,3.75
2023-02-07T10:34:31.156Z,3.83
2023-02-07T10:37:18.669Z,3.79
2023-02-07T10:39:58.058Z,4.04
2023-02-07T10:42:34.443Z,3.71
2023-02-07T10:45:08.625Z,3.58
2023-02-07T10:47:45.088Z,4.30
2023-02-07T10:50:29.280Z,4.05
2023-02-07T10:53:05.889Z,4.33
2023-02-07T10:55:46.936Z,4.12
2023-02-07T10:58:24.024Z,3.96
2023-02-07T11:01:01.471Z,3.79
2023-02-07T11:03:33.247Z,3.78
2023-02-07T11:09:28.134Z,3.94
2023-02-07T11:12:00.621Z,3.98
2023-02-07T11:14:34.890Z,4.43
2023-02-07T11:17:08.622Z,3.77
2023-02-07T11:19:41.948Z,3.67
2023-02-07T11:22:22.655Z,3.82
2023-02-07T11:25:05.737Z,3.39
2023-02-07T11:27:42.298Z,3.47
2023-02-07T11:30:22.623Z,3.61
2023-02-07T11:33:00.737Z,3.49
2023-02-07T11:35:33.755Z,3.63
2023-02-07T11:38:15.541Z,3.66
2023-02-07T11:40:53.495Z,3.43
2023-02-07T11:43:26.225Z,3.96
2023-02-07T11:46:07.194Z,3.52
2023-02-07T11:48:43.742Z,3.43
2023-02-07T11:51:22.513Z,3.58
2023-02-07T11:54:00.945Z,3.83
2023-02-07T11:56:42.246Z,3.51
2023-02-07T11:59:21.766Z,3.35
2023-02-07T12:01:57.447Z,3.33
2023-02-07T12:04:33.855Z,3.52
2023-02-07T12:07:17.288Z,3.14
2023-02-07T12:09:56.408Z,3.55
2023-02-07T12:12:42.486Z,3.48
2023-02-07T12:15:21.061Z,3.72
2023-02-07T12:18:02.781Z,4.06
2023-02-07T12:20:38.436Z,3.79
2023-02-07T12:23:40.915Z,3.38
2023-02-07T12:26:18.146Z,3.60
2023-02-07T12:29:13.990Z,3.46
2023-02-07T12:31:58.224Z,3.51
2023-02-07T12:34:36.077Z,3.64
2023-02-07T12:37:20.939Z,3.58
2023-02-07T12:40:02.952Z,3.44
2023-02-07T12:42:41.855Z,3.42
2023-02-07T12:45:34.315Z,3.67
2023-02-07T12:48:16.175Z,3.60
2023-02-07T12:51:17.094Z,3.53
2023-02-07T12:54:09.376Z,3.57
2023-02-07T12:56:56.601Z,3.61
2023-02-07T12:59:41.577Z,3.44
2023-02-07T13:02:33.741Z,3.37
2023-02-07T13:05:32.809Z,3.53
2023-02-07T13:08:17.306Z,3.42
2023-02-07T13:11:02.701Z,3.71
2023-02-07T13:13:41.499Z,3.81
2023-02-07T13:16:21.393Z,3.80
2023-02-07T13:19:01.103Z,3.69
2023-02-07T13:21:44.246Z,3.66
2023-02-07T13:24:23.039Z,3.44
2023-02-07T13:27:00.846Z,3.92
2023-02-07T13:29:35.986Z,3.60
2023-02-07T13:32:25.037Z,3.83
2023-02-07T13:35:04.845Z,3.80
2023-02-07T13:37:45.205Z,3.56
2023-02-07T13:40:40.776Z,3.48
2023-02-07T13:43:19.653Z,3.27
2023-02-07T13:46:02.520Z,3.23
2023-02-07T13:48:41.364Z,3.58
2023-02-07T13:51:25.564Z,3.60
2023-02-07T13:54:05.287Z,3.43
2023-02-07T13:56:51.644Z,3.66
2023-02-07T13:59:43.507Z,3.83
2023-02-07T14:02:26.955Z,3.76
2023-02-07T14:05:10.270Z,3.82
2023-02-07T14:07:46.508Z,3.81
2023-02-07T14:10:46.222Z,3.57
2023-02-07T14:13:36.861Z,3.42
2023-02-07T14:16:13.406Z,3.58
2023-02-07T14:18:51.262Z,4.02
2023-02-07T14:21:53.256Z,3.83
2023-02-07T14:24:36.785Z,3.57
2023-02-07T14:27:30.589Z,3.33
2023-02-07T14:30:21.719Z,3.16
2023-02-07T14:33:16.663Z,3.22
2023-02-07T14:36:09.403Z,3.12
2023-02-07T14:38:46.402Z,3.26
2023-02-07T14:41:41.615Z,3.22
2023-02-07T14:44:28.046Z,3.45
2023-02-07T14:47:03.069Z,3.46
2023-02-07T14:49:40.351Z,3.37
2023-02-07T14:52:17.513Z,3.42
2023-02-07T14:54:54.910Z,3.51
2023-02-07T14:57:46.913Z,3.48
2023-02-07T15:00:31.796Z,3.46
2023-02-07T15:03:09.795Z,3.60
2023-02-07T15:05:52.278Z,3.28
2023-02-07T15:08:37.106Z,3.36
2023-02-07T15:11:38.281Z,3.32
2023-02-07T15:14:50.160Z,3.41
2023-02-07T15:17:28.847Z,3.38
2023-02-07T15:20:07.155Z,3.09
2023-02-07T15:22:40.659Z,2.97
2023-02-07T15:25:27.055Z,3.01
2023-02-07T15:28:11.037Z,3.16
2023-02-07T15:31:19.475Z,3.08
2023-02-07T15:33:55.976Z,2.89
2023-02-07T15:36:39.504Z,2.66
2023-02-07T15:39:19.629Z,2.68
2023-02-07T15:41:55.944Z,2.97
2023-02-07T15:44:43.955Z,2.86
2023-02-07T15:47:36.652Z,2.89
2023-02-07T15:50:20.843Z,2.58
2023-02-07T15:52:57.472Z,2.40
2023-02-07T15:55:37.668Z,2.37
2023-02-07T15:58:19.762Z,2.27
2023-02-07T16:00:53.158Z,2.13
2023-02-07T16:03:47.083Z,2.10
2023-02-07T16:06:25.173Z,2.05
2023-02-07T16:09:12.859Z,1.94
2023-02-07T16:11:45.835Z,1.99
2023-02-07T16:14:25.953Z,1.91
2023-02-07T16:17:00.444Z,1.85
2023-02-07T16:19:49.011Z,1.87
2023-02-07T16:22:33.414Z,1.74
2023-02-07T16:25:06.576Z,1.77
2023-02-07T16:27:48.349Z,1.67
2023-02-07T16:30:24.178Z,1.59
2023-02-07T16:33:17.219Z,1.57
2023-02-07T16:35:52.898Z,1.55
2023-02-07T16:38:25.379Z,1.51
2023-02-07T16:41:06.338Z,1.52
2023-02-07T16:43:46.451Z,1.57
2023-02-07T16:46:21.858Z,1.46
2023-02-07T16:49:04.620Z,1.36
2023-02-07T16:51:45.750Z,1.36
2023-02-07T16:54:25.038Z,1.38
2023-02-07T16:57:01.424Z,1.27
2023-02-07T16:59:34.837Z,1.22
2023-02-07T17:02:17.291Z,1.11
2023-02-07T17:04:49.838Z,1.09
2023-02-07T17:07:36.231Z,1.05
2023-02-07T17:10:23.274Z,0.98
2023-02-07T17:13:05.182Z,1.00
2023-02-07T17:15:39.381Z,0.94
2023-02-07T17:18:13.462Z,1.00
2023-02-07T17:21:11.988Z,1.05
2023-02-07T17:23:49.585Z,0.95
2023-02-07T17:26:27.778Z,0.94
2023-02-07T17:29:03.056Z,0.96
2023-02-07T17:31:35.315Z,1.23
2023-02-07T17:34:08.368Z,1.54
2023-02-07T17:36:41.113Z,1.45
2023-02-07T17:39:25.994Z,1.54
2023-02-07T17:42:07.594Z,1.47
2023-02-07T17:44:40.674Z,1.42
2023-02-07T17:47:13.110Z,1.48
2023-02-07T17:49:45.949Z,1.44
2023-02-07T17:52:18.148Z,1.29
2023-02-07T17:55:00.911Z,1.49
2023-02-07T17:57:33.187Z,1.51
2023-02-07T18:00:06.468Z,1.45
2023-02-07T18:02:40.475Z,1.51
2023-02-07T18:05:13.360Z,1.51
2023-02-07T18:07:51.474Z,1.45
2023-02-07T18:10:32.390Z,1.46
2023-02-07T18:13:04.788Z,1.45
2023-02-07T18:15:37.505Z,1.48
2023-02-07T18:18:09.655Z,1.40
2023-02-07T18:20:42.253Z,1.34
2023-02-07T18:23:15.754Z,1.19
2023-02-07T18:25:54.435Z,1.13
2023-02-07T18:28:26.462Z,1.11
2023-02-07T18:31:00.472Z,1.04
2023-02-07T18:33:36.811Z,1.01
2023-02-07T18:36:10.520Z,0.96
2023-02-07T18:38:47.999Z,0.81
2023-02-07T18:41:40.323Z,0.67
2023-02-07T18:44:12.839Z,0.74
2023-02-07T18:46:45.080Z,0.62
2023-02-07T18:49:30.928Z,0.58
2023-02-07T18:52:03.078Z,0.50
2023-02-07T18:54:36.663Z,0.49
2023-02-07T18:57:11.804Z,0.48
2023-02-07T18:59:52.014Z,0.70
2023-02-07T19:02:29.288Z,0.68
2023-02-07T19:05:06.860Z,0.77
2023-02-07T19:07:44.516Z,0.66
2023-02-07T19:10:17.696Z,0.69
2023-02-07T19:13:06.180Z,0.65
2023-02-07T19:15:50.508Z,0.82
2023-02-07T19:18:23.195Z,0.93
2023-02-07T19:20:55.361Z,1.02
2023-02-07T19:23:31.136Z,1.26
2023-02-07T19:26:03.652Z,1.06
2023-02-07T19:28:41.178Z,0.89
2023-02-07T19:31:18.542Z,0.75
2023-02-07T19:34:06.276Z,0.66
2023-02-07T19:36:38.197Z,0.67
2023-02-07T19:39:31.256Z,0.92
2023-02-07T19:42:08.317Z,0.67
2023-02-07T19:44:44.937Z,0.62
2023-02-07T19:47:17.115Z,0.57
2023-02-07T19:49:52.186Z,0.74
2023-02-07T19:52:26.034Z,0.82
2023-02-07T19:54:58.853Z,1.01
2023-02-07T19:57:31.076Z,0.72
2023-02-07T20:00:07.322Z,0.72
2023-02-07T20:02:39.775Z,0.55
2023-02-07T20:05:12.443Z,0.42
2023-02-07T20:07:44.754Z,0.52
2023-02-07T20:10:17.530Z,0.64
2023-02-07T20:12:49.856Z,0.43
2023-02-07T20:15:25.266Z,0.37
2023-02-07T20:17:57.479Z,0.35
2023-02-07T20:20:30.238Z,0.25
2023-02-07T20:23:02.460Z,0.32
2023-02-07T20:25:37.899Z,0.25
2023-02-07T20:28:11.389Z,0.24
2023-02-07T20:30:49.653Z,0.19
2023-02-07T20:33:21.761Z,0.20
2023-02-07T20:35:57.402Z,0.17
2023-02-07T20:38:29.784Z,0.03
2023-02-07T20:41:10.032Z,0.01
2023-02-07T20:43:43.138Z,-0.03
2023-02-07T20:46:18.574Z,-0.09
2023-02-07T20:48:50.922Z,-0.21
2023-02-07T20:51:24.206Z,-0.19
2023-02-07T20:54:00.122Z,-0.14
2023-02-07T20:56:33.831Z,-0.03
2023-02-07T20:59:06.270Z,0.19
2023-02-07T21:01:42.726Z,0.29
2023-02-07T21:04:15.024Z,0.13
2023-02-07T21:06:48.221Z,0.21
2023-02-07T21:09:20.900Z,0.43
2023-02-07T21:11:55.646Z,0.34
2023-02-07T21:14:31.032Z,0.20
2023-02-07T21:17:09.556Z,0.19
2023-02-07T21:19:41.880Z,0.18
2023-02-07T21:22:14.255Z,0.31
2023-02-07T21:24:46.022Z,0.23
2023-02-07T21:27:18.176Z,0.10
2023-02-07T21:29:49.987Z,0.07
2023-02-07T21:32:24.949Z,0.14
2023-02-07T21:34:56.598Z,0.24
2023-02-07T21:37:59.057Z,0.11
2023-02-07T21:40:30.954Z,0.05
2023-02-07T21:43:03.127Z,0.03
2023-02-07T21:45:41.490Z,-0.05
2023-02-07T21:48:49.752Z,-0.12
2023-02-07T21:51:39.078Z,-0.21
2023-02-07T21:54:15.931Z,-0.26
2023-02-07T21:56:48.066Z,-0.30
2023-02-07T21:59:22.743Z,-0.34
2023-02-07T22:01:55.948Z,-0.24
2023-02-07T22:04:32.156Z,-0.17
2023-02-07T22:07:03.739Z,-0.24
2023-02-07T22:09:35.680Z,-0.10
2023-02-07T22:12:10.585Z,-0.04
2023-02-07T22:14:45.042Z,-0.13
2023-02-07T22:17:16.260Z,-0.17
2023-02-07T22:19:54.181Z,-0.20
2023-02-07T22:22:25.547Z,-0.17
2023-02-07T22:24:57.569Z,-0.25
2023-02-07T22:27:29.031Z,-0.31
2023-02-07T22:33:00.695Z,-0.30
2023-02-07T22:35:39.478Z,-0.39
2023-02-07T22:38:12.213Z,-0.52
2023-02-07T22:40:45.864Z,-0.61
2023-02-07T22:43:22.126Z,-0.59
2023-02-07T22:45:55.976Z,-0.72
2023-02-07T22:48:27.433Z,-0.65
2023-02-07T22:51:02.720Z,-0.77
2023-02-07T22:53:34.024Z,-0.70
2023-02-07T22:56:08.888Z,-0.57
2023-02-07T22:58:40.843Z,-0.57
2023-02-07T23:01:23.126Z,-0.65
2023-02-07T23:03:55.628Z,-0.68
2023-02-07T23:06:32.714Z,-0.81
2023-02-07T23:09:06.570Z,-0.75
2023-02-07T23:11:39.516Z,-0.74
2023-02-07T23:14:10.848Z,-0.67
2023-02-07T23:16:43.344Z,-0.73
2023-02-07T23:19:17.630Z,-0.82
2023-02-07T23:21:52.218Z,-0.86
2023-02-07T23:24:23.952Z,-0.82
2023-02-07T23:26:55.866Z,-0.82
2023-02-07T23:29:34.106Z,-0.91
2023-02-07T23:32:11.216Z,-0.98
2023-02-07T23:34:44.444Z,-0.99
2023-02-07T23:37:19.613Z,-1.03
2023-02-07T23:39:51.365Z,-1.14
2023-02-07T23:42:23.657Z,-1.10
2023-02-07T23:44:55.366Z,-1.15
2023-02-07T23:47:27.477Z,-1.21
2023-02-07T23:49:59.258Z,-1.26
2023-02-07T23:52:34.208Z,-1.24
2023-02-07T23:55:05.727Z,-1.21
2023-02-07T23:57:37.685Z,-1.27
